Time;durP1;ratioP1;P1;durP2;ratioP2;P2;SDS_P1;SDS_P2;PMS_P1;PMS_P2;Temp;Humidity;BMP_temperature;BMP_pressure;BME280_temperature;BME280_humidity;BME280_pressure;Samples;Min_cycle;Max_cycle;Signal;HPM_P1;HPM_P2
2024/01/30 00:00:15;;;;;;;9.15;6.28;;;;;;;1.88;100.00;102731.41;4939856;28;20052;-77
2024/01/30 00:02:43;;;;;;;9.43;5.35;;;;;;;1.86;100.00;102730.75;4915190;29;20039;-76
2024/01/30 00:05:08;;;;;;;8.10;4.93;;;;;;;1.83;100.00;102728.44;4922132;29;20146;-77
2024/01/30 00:07:34;;;;;;;8.15;5.60;;;;;;;1.84;100.00;102726.63;4932003;28;20394;-76
2024/01/30 00:10:00;;;;;;;8.13;5.78;;;;;;;1.86;100.00;102725.47;4918195;29;20536;-77
2024/01/30 00:12:26;;;;;;;9.77;5.75;;;;;;;1.87;100.00;102734.22;4938343;28;20040;-76
2024/01/30 00:14:51;;;;;;;7.80;5.18;;;;;;;1.84;100.00;102727.44;4931091;29;20166;-74
2024/01/30 00:17:17;;;;;;;10.95;6.32;;;;;;;1.83;100.00;102720.50;4918288;28;20042;-73
2024/01/30 00:19:42;;;;;;;9.13;5.68;;;;;;;1.82;100.00;102728.56;4932888;28;20103;-76
2024/01/30 00:22:08;;;;;;;9.07;6.28;;;;;;;1.79;100.00;102724.47;4931900;28;20145;-77
2024/01/30 00:24:34;;;;;;;7.85;5.03;;;;;;;1.76;100.00;102724.78;4935368;28;20045;-76
2024/01/30 00:27:00;;;;;;;8.93;5.45;;;;;;;1.75;100.00;102720.47;4931695;28;20039;-77
2024/01/30 00:29:30;;;;;;;7.45;5.30;;;;;;;1.72;100.00;102720.81;4933630;28;20043;-77
2024/01/30 00:31:56;;;;;;;8.45;5.47;;;;;;;1.73;100.00;102714.53;4936668;28;20035;-76
2024/01/30 00:34:21;;;;;;;8.18;5.30;;;;;;;1.71;100.00;102713.06;4918788;28;20511;-76
2024/01/30 00:36:47;;;;;;;9.30;5.47;;;;;;;1.69;100.00;102707.91;4931938;28;20031;-76
2024/01/30 00:39:15;;;;;;;9.63;5.97;;;;;;;1.70;100.00;102703.50;4942922;28;20122;-77
2024/01/30 00:41:41;;;;;;;7.18;5.43;;;;;;;1.68;100.00;102706.25;4932873;28;20046;-77
2024/01/30 00:44:06;;;;;;;8.82;5.88;;;;;;;1.67;100.00;102704.63;4926949;28;20035;-77
2024/01/30 00:46:32;;;;;;;7.18;5.05;;;;;;;1.68;100.00;102706.25;4938570;28;20031;-77
2024/01/30 00:48:58;;;;;;;10.15;5.68;;;;;;;1.64;100.00;102703.16;4929484;28;20043;-76
2024/01/30 00:51:24;;;;;;;8.95;5.35;;;;;;;1.64;100.00;102705.78;4926830;29;20123;-78
2024/01/30 00:53:49;;;;;;;9.63;5.57;;;;;;;1.73;100.00;102700.50;4940100;28;20036;-77
2024/01/30 00:56:18;;;;;;;8.43;5.45;;;;;;;1.73;100.00;102697.88;4938517;28;20035;-76
2024/01/30 00:58:44;;;;;;;8.10;5.70;;;;;;;1.75;100.00;102703.81;4936515;28;20043;-78
2024/01/30 01:01:09;;;;;;;9.88;5.70;;;;;;;1.77;100.00;102699.19;4941841;28;20856;-78
2024/01/30 01:03:35;;;;;;;8.73;5.20;;;;;;;1.77;100.00;102707.13;4918646;28;20505;-76
2024/01/30 01:06:01;;;;;;;7.05;5.03;;;;;;;1.72;100.00;102697.03;4940636;28;20162;-77
2024/01/30 01:08:26;;;;;;;8.45;5.38;;;;;;;1.70;100.00;102704.31;4945040;28;20043;-76
2024/01/30 01:10:52;;;;;;;7.30;5.13;;;;;;;1.69;100.00;102705.28;4908657;29;20039;-77
2024/01/30 01:13:18;;;;;;;9.88;6.05;;;;;;;1.67;100.00;102704.63;4938338;28;20043;-77
2024/01/30 01:15:43;;;;;;;9.05;5.55;;;;;;;1.64;100.00;102707.59;4939848;28;20043;-76
2024/01/30 01:18:09;;;;;;;8.05;4.85;;;;;;;1.61;100.00;102703.44;4921329;29;20047;-77
2024/01/30 01:20:34;;;;;;;11.88;5.63;;;;;;;1.61;100.00;102710.53;4940903;28;20584;-77
2024/01/30 01:23:00;;;;;;;7.55;5.15;;;;;;;1.61;100.00;102713.19;4936288;28;20031;-77
2024/01/30 01:25:26;;;;;;;;;;;;;;;1.61;100.00;102721.09;4937073;28;20047;-78
2024/01/30 01:27:52;;;;;;;7.47;4.57;;;;;;;1.58;100.00;102708.25;4916948;29;19919;-77
2024/01/30 01:30:21;;;;;;;8.02;5.38;;;;;;;1.56;100.00;102712.88;4932927;28;20046;-78
2024/01/30 01:32:55;;;;;;;9.40;5.35;;;;;;;1.56;100.00;102718.97;4927698;29;20493;-78
2024/01/30 01:35:24;;;;;;;7.63;5.13;;;;;;;1.55;100.00;102711.19;4951427;28;20705;-77
2024/01/30 01:37:59;;;;;;;9.18;5.00;;;;;;;1.55;100.00;102711.19;4936947;28;20432;-76
2024/01/30 01:40:26;;;;;;;9.75;5.97;;;;;;;1.57;100.00;102709.25;4938223;28;20043;-77
2024/01/30 01:42:54;;;;;;;8.70;5.53;;;;;;;1.56;100.00;102712.88;4909947;29;20054;-76
2024/01/30 01:45:21;;;;;;;10.00;6.07;;;;;;;1.54;100.00;102707.72;4946865;28;20390;-78
2024/01/30 01:47:53;;;;;;;7.80;4.78;;;;;;;1.54;100.00;102699.81;4907387;29;20710;-77
2024/01/30 01:50:21;;;;;;;8.05;5.32;;;;;;;1.53;100.00;102699.97;4902565;28;20040;-77
2024/01/30 01:52:47;;;;;;;8.88;5.70;;;;;;;1.51;100.00;102691.41;4943420;28;20106;-77
2024/01/30 01:55:15;;;;;;;7.85;5.07;;;;;;;1.48;100.00;102689.06;4924096;29;20043;-78
2024/01/30 01:57:41;;;;;;;7.88;5.15;;;;;;;1.46;100.00;102686.59;4915507;28;20042;-75
2024/01/30 02:00:10;;;;;;;10.40;5.43;;;;;;;1.48;100.00;102691.69;4936372;28;20043;-78
2024/01/30 02:02:36;;;;;;;10.63;6.53;;;;;;;1.48;100.00;102683.78;4917016;28;20497;-75
2024/01/30 02:05:03;;;;;;;10.60;6.30;;;;;;;1.47;100.00;102688.25;4912800;29;20204;-77
2024/01/30 02:07:29;;;;;;;8.73;5.80;;;;;;;1.46;100.00;102680.47;4943716;28;20113;-78
2024/01/30 02:09:55;;;;;;;7.85;5.25;;;;;;;1.43;100.00;102680.81;4914676;29;20037;-79
2024/01/30 02:12:21;;;;;;;10.65;5.65;;;;;;;1.41;100.00;102672.22;4930659;28;20989;-77
2024/01/30 02:14:48;;;;;;;9.48;5.70;;;;;;;1.39;100.00;102675.03;4946437;28;20739;-77
2024/01/30 02:17:14;;;;;;;8.00;4.88;;;;;;;1.39;100.00;102668.91;4944448;28;20039;-78
2024/01/30 02:19:40;;;;;;;8.02;5.55;;;;;;;1.42;100.00;102664.13;4941776;28;20043;-78
2024/01/30 02:22:07;;;;;;;7.38;5.05;;;;;;;1.43;100.00;102664.97;4934032;28;20059;-79
2024/01/30 02:24:32;;;;;;;7.72;5.57;;;;;;;1.44;100.00;102661.34;4939900;28;20075;-78
2024/01/30 02:26:58;;;;;;;9.50;4.93;;;;;;;1.45;100.00;102649.78;4925069;29;20049;-77
2024/01/30 02:29:24;;;;;;;8.48;5.55;;;;;;;1.46;100.00;102654.09;4933445;28;20050;-78
2024/01/30 02:31:50;;;;;;;9.27;6.07;;;;;;;1.46;100.00;102657.53;4936248;28;20036;-78
2024/01/30 02:34:15;;;;;;;9.98;6.63;;;;;;;1.46;100.00;102649.63;4924576;29;20075;-78
2024/01/30 02:36:45;;;;;;;9.25;5.88;;;;;;;1.47;100.00;102650.44;4933592;28;20509;-78
2024/01/30 02:39:10;;;;;;;10.52;5.90;;;;;;;1.48;100.00;102654.75;4933367;28;20039;-78
2024/01/30 02:41:36;;;;;;;9.75;6.40;;;;;;;1.50;100.00;102650.13;4937395;28;20066;-79
2024/01/30 02:44:02;;;;;;;7.65;5.32;;;;;;;1.52;100.00;102648.16;4943841;28;20468;-77
2024/01/30 02:46:28;;;;;;;9.60;5.75;;;;;;;1.53;100.00;102649.81;4940108;28;20114;-78
2024/01/30 02:48:54;;;;;;;8.75;6.22;;;;;;;1.54;100.00;102644.34;4934384;28;20489;-78
2024/01/30 02:51:19;;;;;;;9.98;5.30;;;;;;;1.55;100.00;102643.34;4934564;28;20489;-77
2024/01/30 02:53:45;;;;;;;10.88;6.10;;;;;;;1.59;100.00;102643.88;4941102;28;20043;-77
2024/01/30 02:56:13;;;;;;;7.32;5.22;;;;;;;1.60;100.00;102651.63;4940522;28;20038;-77
2024/01/30 02:58:39;;;;;;;10.40;6.20;;;;;;;1.61;100.00;102648.00;4937743;28;20045;-77
2024/01/30 03:01:06;;;;;;;11.02;6.90;;;;;;;1.68;100.00;102647.34;4910516;29;20055;-76
2024/01/30 03:03:34;;;;;;;11.57;6.70;;;;;;;1.72;100.00;102641.56;4931636;28;20066;-76
2024/01/30 03:05:59;;;;;;;10.55;6.35;;;;;;;1.74;100.00;102642.22;4948149;28;20040;-75
2024/01/30 03:08:25;;;;;;;10.35;5.93;;;;;;;1.76;100.00;102640.25;4921156;28;21634;-72
2024/01/30 03:10:52;;;;;;;10.55;6.30;;;;;;;1.75;100.00;102638.59;4942608;28;20119;-76
2024/01/30 03:13:17;;;;;;;9.85;6.07;;;;;;;1.78;100.00;102638.28;4923989;29;20543;-76
2024/01/30 03:15:43;;;;;;;9.75;5.95;;;;;;;1.79;100.00;102634.63;4938314;28;20070;-76
2024/01/30 03:18:09;;;;;;;11.15;6.90;;;;;;;1.82;100.00;102634.28;4930257;28;20027;-76
2024/01/30 03:20:34;;;;;;;10.23;6.53;;;;;;;1.84;100.00;102634.97;4934265;28;20456;-76
2024/01/30 03:23:00;;;;;;;10.07;6.20;;;;;;;1.83;100.00;102629.84;4938463;28;20034;-76
2024/01/30 03:25:26;;;;;;;10.73;6.75;;;;;;;1.79;100.00;102624.06;4942289;28;20126;-76
2024/01/30 03:27:51;;;;;;;9.75;6.70;;;;;;;1.77;100.00;102631.34;4930663;28;20178;-78
2024/01/30 03:30:17;;;;;;;9.88;6.20;;;;;;;1.75;100.00;102628.03;4936070;28;20071;-77
2024/01/30 03:32:44;;;;;;;9.52;6.15;;;;;;;1.71;100.00;102626.72;4939155;28;20035;-79
2024/01/30 03:35:10;;;;;;;10.68;6.93;;;;;;;1.67;100.00;102625.38;4933516;28;20441;-77
2024/01/30 03:37:35;;;;;;;9.15;6.07;;;;;;;1.64;100.00;102636.28;4940543;28;20070;-78
2024/01/30 03:40:03;;;;;;;10.70;6.95;;;;;;;1.60;100.00;102632.31;4941055;28;20032;-77
2024/01/30 03:42:29;;;;;;;12.63;7.65;;;;;;;1.57;100.00;102630.00;4935350;28;20109;-76
2024/01/30 03:44:56;;;;;;;11.07;6.88;;;;;;;1.51;100.00;102635.94;4939234;28;20568;-79
2024/01/30 03:47:21;;;;;;;14.38;8.35;;;;;;;1.49;100.00;102632.63;4927428;29;20913;-77
2024/01/30 03:49:47;;;;;;;14.27;7.70;;;;;;;1.46;100.00;102632.97;4935998;28;20035;-77
2024/01/30 03:52:13;;;;;;;12.25;8.00;;;;;;;1.43;100.00;102620.09;4946195;28;20094;-77
2024/01/30 03:54:39;;;;;;;13.25;8.73;;;;;;;1.45;100.00;102618.09;4923647;28;20126;-76
2024/01/30 03:57:05;;;;;;;10.63;7.00;;;;;;;1.45;100.00;102611.00;4932203;28;20130;-76
2024/01/30 03:59:31;;;;;;;11.73;6.82;;;;;;;1.43;100.00;102612.19;4921081;28;20045;-76
2024/01/30 04:01:56;;;;;;;10.35;6.20;;;;;;;1.41;100.00;102598.28;4936971;28;20055;-77
2024/01/30 04:04:23;;;;;;;10.65;7.00;;;;;;;1.43;100.00;102601.63;4936080;28;20040;-76
2024/01/30 04:06:48;;;;;;;12.13;6.97;;;;;;;1.46;100.00;102606.56;4942415;28;20424;-78
2024/01/30 04:09:14;;;;;;;12.85;6.80;;;;;;;1.47;100.00;102602.91;4945820;28;20048;-78
2024/01/30 04:11:40;;;;;;;11.50;7.05;;;;;;;1.47;100.00;102595.00;4927835;29;20047;-79
2024/01/30 04:14:06;;;;;;;12.68;8.13;;;;;;;1.47;100.00;102597.63;4928314;29;20169;-78
2024/01/30 04:16:31;;;;;;;11.15;7.00;;;;;;;1.46;100.00;102602.09;4944454;28;20891;-78
2024/01/30 04:18:58;;;;;;;11.85;6.65;;;;;;;1.45;100.00;102594.34;4924495;29;20071;-77
2024/01/30 04:21:23;;;;;;;12.30;7.40;;;;;;;1.42;100.00;102595.47;4944633;28;20039;-76
2024/01/30 04:23:51;;;;;;;9.85;6.82;;;;;;;1.41;100.00;102603.56;4917070;28;20120;-75
2024/01/30 04:26:16;;;;;;;10.23;6.82;;;;;;;1.38;100.00;102604.72;4945258;28;20513;-76
2024/01/30 04:28:44;;;;;;;11.57;7.38;;;;;;;1.38;100.00;102607.38;4936073;28;20043;-77
2024/01/30 04:31:10;;;;;;;10.55;6.97;;;;;;;1.39;100.00;102605.56;4942957;28;20135;-75
2024/01/30 04:33:36;;;;;;;11.88;7.18;;;;;;;1.36;100.00;102612.81;4952827;28;20122;-78
2024/01/30 04:36:02;;;;;;;11.52;7.43;;;;;;;1.35;100.00;102619.09;4942841;28;20090;-78
2024/01/30 04:38:29;;;;;;;12.73;8.32;;;;;;;1.38;100.00;102614.47;4963186;28;20039;-75
2024/01/30 04:40:55;;;;;;;12.45;6.97;;;;;;;1.34;100.00;102613.97;4936331;28;20032;-76
2024/01/30 04:43:21;;;;;;;11.82;7.03;;;;;;;1.35;100.00;102613.81;4916282;29;20075;-76
2024/01/30 04:45:47;;;;;;;12.27;8.18;;;;;;;1.35;100.00;102619.09;4942386;28;20032;-77
2024/01/30 04:48:13;;;;;;;14.18;7.40;;;;;;;1.34;100.00;102620.06;4934564;29;20130;-77
2024/01/30 04:50:39;;;;;;;10.80;7.95;;;;;;;1.31;100.00;102616.94;4956744;28;20036;-78
2024/01/30 04:53:05;;;;;;;10.85;7.00;;;;;;;1.29;100.00;102614.47;4943135;28;20035;-77
2024/01/30 04:55:31;;;;;;;10.88;7.03;;;;;;;1.27;100.00;102619.06;4942758;28;20050;-76
2024/01/30 04:57:57;;;;;;;12.32;7.82;;;;;;;1.30;100.00;102616.13;4943061;28;20070;-77
2024/01/30 05:00:23;;;;;;;12.48;7.68;;;;;;;1.30;100.00;102602.09;4938164;29;20050;-76
2024/01/30 05:02:48;;;;;;;11.98;7.38;;;;;;;1.29;100.00;102611.81;4928495;28;20044;-77
2024/01/30 05:05:14;;;;;;;11.77;7.60;;;;;;;1.29;100.00;102611.00;4941450;28;20151;-75
2024/01/30 05:07:41;;;;;;;12.82;7.75;;;;;;;1.28;100.00;102610.16;4939209;28;20066;-77
2024/01/30 05:10:07;;;;;;;;;;;;;;;1.26;100.00;102612.13;4928041;29;20039;-79
2024/01/30 05:12:33;;;;;;;11.77;7.47;;;;;;;1.24;100.00;102611.47;4941941;28;20343;-78
2024/01/30 05:14:59;;;;;;;12.02;7.78;;;;;;;1.23;100.00;102611.66;4940299;28;20050;-76
2024/01/30 05:17:25;;;;;;;11.90;7.10;;;;;;;1.23;100.00;102607.19;4936576;28;20040;-77
2024/01/30 05:19:50;;;;;;;13.65;7.82;;;;;;;1.24;100.00;102614.13;4938691;28;20666;-78
2024/01/30 05:22:18;;;;;;;12.85;7.15;;;;;;;1.24;100.00;102600.91;4917610;28;20043;-76
2024/01/30 05:24:44;;;;;;;12.13;7.28;;;;;;;1.25;100.00;102597.28;4941485;28;20085;-76
2024/01/30 05:27:11;;;;;;;11.07;7.80;;;;;;;1.26;100.00;102600.75;4944351;28;20394;-76
2024/01/30 05:29:37;;;;;;;12.75;8.27;;;;;;;1.27;100.00;102603.22;4935651;28;20046;-77
2024/01/30 05:32:03;;;;;;;12.55;7.60;;;;;;;1.25;100.00;102599.09;4943572;28;20035;-78
2024/01/30 05:34:28;;;;;;;;;;;;;;;1.26;100.00;102612.13;4945946;28;20036;-78
2024/01/30 05:36:54;;;;;;;11.57;7.50;;;;;;;1.21;100.00;102603.88;4930612;28;20020;-76
2024/01/30 05:39:20;;;;;;;12.43;7.82;;;;;;;1.21;100.00;102601.22;4940183;28;20035;-77
2024/01/30 05:41:45;;;;;;;11.35;7.07;;;;;;;1.20;100.00;102602.22;4953086;28;20756;-77
2024/01/30 05:44:11;;;;;;;12.90;7.50;;;;;;;1.19;100.00;102600.56;4924312;29;20035;-78
2024/01/30 05:46:36;;;;;;;11.73;7.25;;;;;;;1.19;100.00;102595.28;4937952;28;20063;-77
2024/01/30 05:49:02;;;;;;;12.65;7.55;;;;;;;1.19;100.00;102592.66;4940322;28;20540;-76
2024/01/30 05:51:29;;;;;;;11.75;8.02;;;;;;;1.21;100.00;102590.66;4934515;29;20039;-76
2024/01/30 05:53:54;;;;;;;13.38;8.60;;;;;;;1.24;100.00;102593.00;4923103;28;20099;-76
2024/01/30 05:56:20;;;;;;;14.32;8.48;;;;;;;1.25;100.00;102594.66;4927909;29;20048;-77
2024/01/30 05:58:46;;;;;;;14.73;8.80;;;;;;;1.27;100.00;102590.03;4927159;28;20035;-76
2024/01/30 06:01:12;;;;;;;14.02;8.35;;;;;;;1.27;100.00;102589.19;4915128;29;20039;-77
2024/01/30 06:03:38;;;;;;;12.30;8.25;;;;;;;1.26;100.00;102587.56;4927298;28;20090;-77
2024/01/30 06:06:04;;;;;;;;;;;;;;;1.27;100.00;102591.84;4915462;29;20046;-76
2024/01/30 06:08:30;;;;;;;13.00;8.55;;;;;;;1.26;100.00;102595.47;4924199;29;19918;-76
2024/01/30 06:10:55;;;;;;;14.15;8.35;;;;;;;1.25;100.00;102589.38;4942081;28;20038;-75
2024/01/30 06:13:21;;;;;;;14.10;8.07;;;;;;;1.27;100.00;102582.09;4937600;28;20035;-78
2024/01/30 06:15:46;;;;;;;13.95;8.48;;;;;;;1.28;100.00;102575.84;4925606;28;20150;-77
2024/01/30 06:18:12;;;;;;;12.15;8.15;;;;;;;1.32;100.00;102569.25;4939815;28;20054;-79
2024/01/30 06:20:38;;;;;;;14.13;8.07;;;;;;;1.35;100.00;102576.00;4924390;29;20075;-75
2024/01/30 06:23:03;;;;;;;13.57;8.35;;;;;;;1.35;100.00;102568.94;4938437;28;20147;-77
2024/01/30 06:25:29;;;;;;;12.55;8.38;;;;;;;1.38;100.00;102567.78;4910803;29;20066;-77
2024/01/30 06:27:55;;;;;;;13.20;8.23;;;;;;;1.40;100.00;102570.25;4940495;28;20042;-79
2024/01/30 06:30:20;;;;;;;14.63;9.05;;;;;;;1.45;100.00;102570.59;4945155;28;20158;-77
2024/01/30 06:32:46;;;;;;;14.85;9.55;;;;;;;1.48;100.00;102568.44;4943118;28;20039;-77
2024/01/30 06:35:12;;;;;;;13.95;8.85;;;;;;;1.54;100.00;102561.66;4924284;29;20043;-77
2024/01/30 06:37:38;;;;;;;17.83;9.43;;;;;;;1.58;100.00;102563.81;4935979;28;20125;-78
2024/01/30 06:40:05;;;;;;;14.18;9.02;;;;;;;1.62;100.00;102565.13;4937048;28;20765;-76
2024/01/30 06:42:31;;;;;;;17.10;8.75;;;;;;;1.68;100.00;102565.47;4925209;29;20050;-77
2024/01/30 06:44:56;;;;;;;17.33;10.05;;;;;;;1.72;100.00;102559.69;4932924;28;20036;-76
2024/01/30 06:47:22;;;;;;;14.98;8.65;;;;;;;1.75;100.00;102559.34;4940739;28;20626;-79
2024/01/30 06:49:47;;;;;;;17.38;9.73;;;;;;;1.78;100.00;102551.09;4940348;28;20078;-77
2024/01/30 06:52:14;;;;;;;18.95;9.73;;;;;;;1.83;100.00;102558.50;4938970;28;20036;-76
2024/01/30 06:54:39;;;;;;;17.00;9.57;;;;;;;1.87;100.00;102555.38;4908272;29;20059;-77
2024/01/30 06:57:08;;;;;;;16.70;10.05;;;;;;;1.89;100.00;102553.38;4927216;28;20497;-77
2024/01/30 06:59:35;;;;;;;14.55;8.50;;;;;;;1.90;100.00;102555.03;4940487;28;20042;-76
2024/01/30 07:02:00;;;;;;;14.20;9.32;;;;;;;1.92;100.00;102557.50;4935659;28;20462;-79
2024/01/30 07:04:26;;;;;;;12.57;8.13;;;;;;;1.94;100.00;102557.34;4906124;29;20570;-76
2024/01/30 07:06:53;;;;;;;15.77;9.52;;;;;;;1.92;100.00;102566.25;4940296;28;20043;-77
2024/01/30 07:09:18;;;;;;;16.08;10.60;;;;;;;1.92;100.00;102560.97;4936289;28;20050;-76
2024/01/30 07:11:44;;;;;;;14.50;9.27;;;;;;;1.91;100.00;102567.25;4936002;28;20027;-75
2024/01/30 07:14:10;;;;;;;12.32;8.27;;;;;;;1.91;100.00;102553.22;4913891;29;20043;-78
2024/01/30 07:16:36;;;;;;;12.90;8.02;;;;;;;1.89;100.00;102561.31;4950133;28;20044;-77
2024/01/30 07:19:02;;;;;;;13.25;8.80;;;;;;;1.87;100.00;102560.66;4928895;28;20040;-79
2024/01/30 07:21:28;;;;;;;11.75;7.82;;;;;;;1.84;100.00;102553.06;4935828;28;20035;-76
2024/01/30 07:23:55;;;;;;;13.00;9.00;;;;;;;1.83;100.00;102553.22;4937412;28;20036;-77
2024/01/30 07:26:20;;;;;;;14.38;8.70;;;;;;;1.83;100.00;102551.44;4939452;28;20409;-76
2024/01/30 07:28:46;;;;;;;15.07;9.80;;;;;;;1.85;100.00;102548.63;4937746;28;20054;-76
2024/01/30 07:31:11;;;;;;;13.80;9.27;;;;;;;1.86;100.00;102559.00;4929002;29;20122;-77
2024/01/30 07:33:37;;;;;;;14.43;10.07;;;;;;;1.88;100.00;102558.84;4951801;28;20071;-78
2024/01/30 07:36:03;;;;;;;14.73;10.32;;;;;;;1.89;100.00;102556.00;4933282;28;20093;-78
2024/01/30 07:38:31;;;;;;;13.43;9.25;;;;;;;1.89;100.00;102555.19;4937903;28;20131;-78
2024/01/30 07:40:57;;;;;;;17.08;10.20;;;;;;;1.90;100.00;102552.41;4924479;29;20083;-77
2024/01/30 07:43:23;;;;;;;15.70;9.85;;;;;;;1.94;100.00;102557.34;4940256;28;20126;-77
2024/01/30 07:45:48;;;;;;;13.85;10.02;;;;;;;1.95;100.00;102548.41;4940570;28;20035;-76
2024/01/30 07:48:14;;;;;;;15.07;9.60;;;;;;;1.95;100.00;102558.97;4941115;28;20067;-77
2024/01/30 07:50:40;;;;;;;16.75;9.95;;;;;;;1.98;100.00;102558.66;4938303;28;20405;-76
2024/01/30 07:53:06;;;;;;;16.27;9.75;;;;;;;1.98;100.00;102562.13;4939846;28;20067;-76
2024/01/30 07:55:32;;;;;;;17.33;10.07;;;;;;;2.00;100.00;102559.31;4943666;28;20116;-76
2024/01/30 07:58:01;;;;;;;16.55;10.23;;;;;;;2.01;100.00;102566.25;4933907;28;20036;-76
2024/01/30 08:00:28;;;;;;;16.65;10.73;;;;;;;2.03;100.00;102549.25;4928436;28;20040;-77
2024/01/30 08:02:55;;;;;;;16.33;9.68;;;;;;;2.04;100.00;102547.44;4936079;28;20049;-76
2024/01/30 08:05:22;;;;;;;13.60;8.77;;;;;;;2.05;100.00;102549.06;4927283;28;20039;-77
2024/01/30 08:07:49;;;;;;;15.60;9.68;;;;;;;2.05;100.00;102546.44;4933647;28;20051;-78
2024/01/30 08:10:15;;;;;;;14.18;9.77;;;;;;;2.07;100.00;102552.34;4938172;28;20071;-77
2024/01/30 08:12:41;;;;;;;18.33;10.85;;;;;;;2.12;100.00;102544.75;4937792;28;20031;-79
2024/01/30 08:15:07;;;;;;;18.23;10.43;;;;;;;2.18;100.00;102547.53;4925437;29;20039;-76
2024/01/30 08:17:33;;;;;;;;;;;;;;;2.23;100.00;102547.00;4940865;28;20042;-76
2024/01/30 08:19:59;;;;;;;15.13;10.13;;;;;;;2.23;100.00;102549.66;4937718;28;19919;-76
2024/01/30 08:22:25;;;;;;;16.77;10.13;;;;;;;2.26;100.00;102551.16;4940016;28;20534;-76
2024/01/30 08:24:50;;;;;;;17.85;10.30;;;;;;;2.29;100.00;102546.34;4940612;28;20035;-77
2024/01/30 08:27:16;;;;;;;16.52;10.50;;;;;;;2.33;100.00;102558.22;4916354;29;20054;-76
2024/01/30 08:29:42;;;;;;;15.93;10.38;;;;;;;2.34;100.00;102553.78;4933870;28;20580;-78
2024/01/30 08:32:08;;;;;;;17.63;10.18;;;;;;;2.39;100.00;102554.91;4954294;28;20187;-76
2024/01/30 08:34:33;;;;;;;17.33;11.57;;;;;;;2.43;100.00;102545.63;4935985;28;20052;-77
2024/01/30 08:36:59;;;;;;;18.73;11.93;;;;;;;2.51;100.00;102546.59;4953095;28;20142;-76
2024/01/30 08:39:25;;;;;;;16.58;10.70;;;;;;;2.56;100.00;102553.00;4943050;28;20032;-76
2024/01/30 08:41:51;;;;;;;16.90;10.32;;;;;;;2.60;100.00;102545.56;4935846;28;20164;-77
2024/01/30 08:44:17;;;;;;;18.33;10.10;;;;;;;2.67;100.00;102546.53;4939811;28;20054;-78
2024/01/30 08:46:43;;;;;;;;;;;;;;;2.71;100.00;102529.31;4944858;28;20035;-76
2024/01/30 08:49:08;;;;;;;17.08;10.68;;;;;;;2.74;100.00;102523.66;4944247;28;19922;-77
2024/01/30 08:51:34;;;;;;;19.95;10.98;;;;;;;2.80;100.00;102527.44;4926084;29;20052;-77
2024/01/30 08:54:00;;;;;;;18.27;11.63;;;;;;;2.86;100.00;102537.34;4945025;28;20042;-76
2024/01/30 08:56:25;;;;;;;20.05;11.27;;;;;;;2.92;100.00;102515.47;4928375;29;20044;-76
2024/01/30 08:58:51;;;;;;;17.67;11.73;;;;;;;3.00;100.00;102512.75;4934294;28;20039;-79
2024/01/30 09:01:16;;;;;;;18.02;11.48;;;;;;;3.09;100.00;102500.28;4941985;28;20070;-76
2024/01/30 09:03:45;;;;;;;19.88;12.60;;;;;;;3.16;100.00;102507.34;4933029;28;20031;-77
2024/01/30 09:06:12;;;;;;;21.20;11.80;;;;;;;3.24;100.00;102509.09;4935449;28;20077;-77
2024/01/30 09:08:39;;;;;;;17.20;11.38;;;;;;;3.28;100.00;102505.09;4943781;28;20568;-76
2024/01/30 09:11:15;;;;;;;20.60;11.57;;;;;;;3.35;100.00;102499.91;4949423;28;20063;-77
2024/01/30 09:13:41;;;;;;;17.92;12.02;;;;;;;3.42;100.00;102495.53;4948740;28;20130;-77
2024/01/30 09:16:07;;;;;;;18.75;11.25;;;;;;;3.47;100.00;102486.06;4920024;28;20863;-77
2024/01/30 09:18:33;;;;;;;15.52;11.45;;;;;;;3.53;100.00;102497.78;4938773;28;20039;-77
2024/01/30 09:20:58;;;;;;;20.00;11.50;;;;;;;3.59;100.00;102501.50;4904358;29;20082;-78
2024/01/30 09:23:24;;;;;;;15.65;10.38;;;;;;;3.64;100.00;102507.09;4940510;28;20093;-78
2024/01/30 09:25:50;;;;;;;17.35;10.43;;;;;;;3.67;100.00;102510.22;4937478;28;20379;-77
2024/01/30 09:28:17;;;;;;;15.55;10.00;;;;;;;3.72;100.00;102520.25;4956561;28;20043;-77
2024/01/30 09:30:43;;;;;;;16.73;11.38;;;;;;;3.75;100.00;102511.97;4945127;28;20138;-76
2024/01/30 09:33:09;;;;;;;19.80;11.73;;;;;;;3.79;100.00;102518.53;4942071;28;20691;-76
2024/01/30 09:35:36;;;;;;;16.05;11.05;;;;;;;3.83;100.00;102518.00;4954041;28;20040;-76
2024/01/30 09:38:02;;;;;;;17.02;10.93;;;;;;;3.88;100.00;102525.41;4926749;28;20043;-78
2024/01/30 09:40:28;;;;;;;18.42;10.55;;;;;;;3.91;100.00;102533.00;4951032;28;20118;-76
2024/01/30 09:42:54;;;;;;;19.85;10.73;;;;;;;3.96;100.00;102541.22;4941235;28;20438;-77
2024/01/30 09:45:24;;;;;;;18.08;11.02;;;;;;;4.02;100.00;102540.50;4928501;29;20047;-76
2024/01/30 09:47:49;;;;;;;17.55;11.70;;;;;;;4.05;100.00;102537.47;4933801;28;20043;-77
2024/01/30 09:50:15;;;;;;;17.08;10.57;;;;;;;4.09;100.00;102522.84;4948670;28;20042;-77
2024/01/30 09:52:42;;;;;;;17.27;9.90;;;;;;;4.15;100.00;102539.06;4941899;28;20055;-78
2024/01/30 09:55:09;;;;;;;15.98;10.15;;;;;;;4.18;100.00;102525.41;4928246;28;20046;-77
2024/01/30 09:57:35;;;;;;;15.38;9.15;;;;;;;4.21;100.00;102533.03;4925113;29;20034;-76
2024/01/30 10:00:01;;;;;;;20.63;10.88;;;;;;;4.27;100.00;102526.97;4939603;28;20292;-76
2024/01/30 10:02:38;;;;;;;16.05;10.38;;;;;;;4.31;100.00;102520.28;4943314;28;20054;-76
2024/01/30 10:05:05;;;;;;;17.85;10.90;;;;;;;4.38;100.00;102514.06;4938841;28;20043;-76
2024/01/30 10:07:31;;;;;;;16.60;11.18;;;;;;;4.44;100.00;102504.53;4937784;28;20142;-76
2024/01/30 10:09:56;;;;;;;17.55;11.68;;;;;;;4.51;100.00;102489.50;4942826;28;20122;-75
2024/01/30 10:12:22;;;;;;;15.93;10.63;;;;;;;4.58;100.00;102500.22;4943676;28;20302;-77
2024/01/30 10:14:48;;;;;;;16.90;10.48;;;;;;;4.62;100.00;102480.25;4940940;28;20039;-76
2024/01/30 10:17:14;;;;;;;20.00;11.45;;;;;;;4.68;100.00;102497.28;4912896;28;20054;-76
2024/01/30 10:19:40;;;;;;;19.08;11.02;;;;;;;4.74;100.00;102491.19;4944606;28;20038;-76
2024/01/30 10:22:06;;;;;;;;;;;;;;;4.81;100.00;102484.97;4941462;28;20039;-76
2024/01/30 10:24:34;;;;;;;16.20;10.07;;;;;;;4.87;100.00;102480.72;4934545;28;19919;-75
2024/01/30 10:27:00;;;;;;;16.55;10.25;;;;;;;4.94;100.00;102492.22;4953745;28;20054;-75
2024/01/30 10:29:27;;;;;;;14.30;9.88;;;;;;;4.99;100.00;102492.47;4938337;29;20035;-74
2024/01/30 10:31:59;;;;;;;;;;;;;;;5.02;100.00;102486.81;4910203;28;20035;-75
2024/01/30 10:34:26;;;;;;;15.40;9.02;;;;;;;5.08;100.00;102490.50;4942493;28;19918;-76
2024/01/30 10:37:00;;;;;;;15.55;9.95;;;;;;;5.12;100.00;102489.94;4938717;28;20035;-75
2024/01/30 10:39:30;;;;;;;17.13;8.82;;;;;;;5.17;100.00;102482.22;4940529;28;20035;-76
2024/01/30 10:42:03;;;;;;;15.18;9.73;;;;;;;5.24;100.00;102481.47;4936752;28;20051;-75
2024/01/30 10:44:34;;;;;;;13.35;9.55;;;;;;;5.30;100.00;102486.84;4937999;28;20062;-75
2024/01/30 10:47:06;;;;;;;15.60;10.23;;;;;;;5.38;100.00;102483.22;4941370;28;20039;-76
2024/01/30 10:49:33;;;;;;;16.92;10.40;;;;;;;5.45;100.00;102473.47;4936634;28;20034;-76
2024/01/30 10:51:59;;;;;;;16.25;10.38;;;;;;;5.51;100.00;102472.69;4931402;28;20031;-75
2024/01/30 10:54:27;;;;;;;13.38;10.07;;;;;;;5.57;100.00;102471.09;4939734;28;20509;-76
2024/01/30 10:56:53;;;;;;;14.32;8.63;;;;;;;5.62;100.00;102474.81;4939320;28;20038;-76
2024/01/30 10:59:19;;;;;;;15.70;10.75;;;;;;;5.68;100.00;102466.03;4933234;28;20035;-75
2024/01/30 11:01:45;;;;;;;14.23;9.93;;;;;;;5.74;100.00;102464.44;4933432;28;20054;-75
2024/01/30 11:04:11;;;;;;;13.38;9.00;;;;;;;5.79;100.00;102461.22;4927260;28;20035;-76
2024/01/30 11:06:43;;;;;;;14.35;9.77;;;;;;;5.85;100.00;102460.44;4938216;28;20035;-75
2024/01/30 11:09:12;;;;;;;19.08;10.55;;;;;;;5.88;100.00;102458.19;4925251;28;20207;-75
2024/01/30 11:12:01;;;;;;;13.27;9.07;;;;;;;5.95;100.00;102455.59;4916373;29;20031;-76
2024/01/30 11:14:29;;;;;;;14.18;9.25;;;;;;;5.98;100.00;102464.03;4948995;28;20036;-74